This is the latest recevied weather packets stored in our database for station/object ED4YAF-13. If no packets are shown the sender has not sent any weather packets the latest 10 day(s).
| Time | Temp. | Humidity | Pressure | Rain* | Wind** | Luminosity | Snow |
|---|---|---|---|---|---|---|---|
| 1787933670 | 19.44° C | 20% | 1014.3 hPa | - | - | - | - |
| 1787932777 | 20° C | 20% | 1013.9 hPa | - | - | - | - |
| 1787931870 | 20.56° C | 21% | 1013.7 hPa | - | - | - | - |
| 1787930973 | 20° C | 20% | 1014 hPa | - | - | - | - |
| 1787930066 | 20.56° C | 20% | 1013.6 hPa | - | - | - | - |
| 1787929173 | 21.11° C | 22% | 1013.5 hPa | - | - | - | - |
| 1787928266 | 19.44° C | 22% | 1014.7 hPa | - | - | - | - |
| 1787927366 | 19.44° C | 23% | 1014.4 hPa | - | - | - | - |
| 1787926452 | 20° C | 23% | 1014.2 hPa | - | - | - | - |
| 1787925552 | 20.56° C | 23% | 1014.1 hPa | - | - | - | - |
| 1787924648 | 18.89° C | 23% | 1015.2 hPa | - | - | - | - |
| 1787923749 | 18.89° C | 25% | 1014.9 hPa | - | - | - | - |
| 1787922840 | 18.33° C | 26% | 1015.7 hPa | - | - | - | - |
| 1787921941 | 18.89° C | 25% | 1015.3 hPa | - | - | - | - |
| 1787920135 | 17.22° C | 27% | 1016.7 hPa | - | - | - | - |
| 1787919219 | 17.78° C | 27% | 1015.9 hPa | - | - | - | - |
| 1787918313 | 16.67° C | 30% | 1016.9 hPa | - | - | - | - |
| 1787917406 | 15.56° C | 30% | 1017.6 hPa | - | - | - | - |
| 1787916504 | 15.56° C | 31% | 1017.5 hPa | - | - | - | - |
| 1787915595 | 15.56° C | 33% | 1017.7 hPa | - | - | - | - |
| 1787914692 | 14.44° C | 36% | 1018.5 hPa | - | - | - | - |
| 1787913779 | 13.89° C | 38% | 1018.6 hPa | - | - | - | - |
| 1787912878 | 13.33° C | 36% | 1018.9 hPa | - | - | - | - |
| 1787911975 | 13.33° C | 43% | 1019 hPa | - | - | - | - |
| 1787911065 | 12.22° C | 45% | 1020.1 hPa | - | - | - | - |
* Rain since midnight (hover to see other rain measurements)
** Current wind speed in m/s (hover to see current wind gust speed)